createdAt,value
2023-01-18T05:17:57.205Z,1.48
2023-01-18T05:20:23.652Z,2.25
2023-01-18T05:22:50.231Z,2.35
2023-01-18T05:25:16.988Z,1.33
2023-01-18T05:27:47.872Z,6.50
2023-01-18T05:30:14.787Z,1.33
2023-01-18T05:32:43.428Z,3.03
2023-01-18T05:35:10.458Z,2.45
2023-01-18T05:37:36.896Z,3.88
2023-01-18T05:40:03.634Z,1.58
2023-01-18T05:42:30.166Z,0.95
2023-01-18T05:44:56.609Z,2.80
2023-01-18T05:47:23.150Z,2.28
2023-01-18T05:49:49.694Z,2.55
2023-01-18T05:52:17.103Z,2.83
2023-01-18T05:54:43.635Z,1.52
2023-01-18T05:57:10.895Z,2.92
2023-01-18T05:59:37.341Z,3.03
2023-01-18T06:02:04.635Z,2.13
2023-01-18T06:04:31.279Z,3.63
2023-01-18T06:06:58.040Z,3.63
2023-01-18T06:09:24.531Z,0.95
2023-01-18T06:11:51.075Z,2.72
2023-01-18T06:14:17.523Z,0.65
2023-01-18T06:16:44.053Z,7.32
2023-01-18T06:19:10.611Z,3.08
2023-01-18T06:21:37.335Z,1.15
2023-01-18T06:24:07.204Z,0.80
2023-01-18T06:26:34.726Z,1.10
2023-01-18T06:29:09.233Z,1.65
2023-01-18T06:31:36.866Z,2.42
2023-01-18T06:34:09.263Z,2.08
2023-01-18T06:36:37.331Z,1.20
2023-01-18T06:39:04.261Z,1.48
2023-01-18T06:42:31.695Z,1.00
2023-01-18T06:44:59.604Z,3.33
2023-01-18T06:47:26.228Z,2.00
2023-01-18T06:49:52.685Z,2.20
2023-01-18T06:52:19.380Z,1.73
2023-01-18T06:54:45.900Z,1.10
2023-01-18T06:57:12.625Z,1.10
2023-01-18T06:59:39.898Z,1.45
2023-01-18T07:02:07.167Z,1.23
2023-01-18T07:04:37.877Z,1.02
2023-01-18T07:07:04.478Z,1.08
2023-01-18T07:09:31.059Z,1.10
2023-01-18T07:11:57.540Z,2.38
2023-01-18T07:14:23.992Z,2.08
2023-01-18T07:16:50.521Z,1.20
2023-01-18T07:19:17.092Z,2.80
2023-01-18T07:21:43.762Z,2.67
2023-01-18T07:24:11.369Z,1.30
2023-01-18T07:26:41.392Z,4.22
2023-01-18T07:29:09.043Z,1.20
2023-01-18T07:31:38.162Z,6.55
2023-01-18T07:34:05.015Z,2.25
2023-01-18T07:36:31.612Z,3.30
2023-01-18T07:38:58.174Z,2.13
2023-01-18T07:41:26.126Z,2.00
2023-01-18T07:43:53.872Z,0.98
2023-01-18T07:46:20.799Z,4.13
2023-01-18T07:48:48.407Z,1.73
2023-01-18T07:51:15.333Z,0.70
2023-01-18T07:53:42.073Z,1.00
2023-01-18T07:56:15.426Z,4.70
2023-01-18T07:58:42.187Z,4.78
2023-01-18T08:01:14.209Z,4.30
2023-01-18T08:03:43.194Z,1.88
2023-01-18T08:06:43.952Z,4.68
2023-01-18T08:09:10.401Z,2.45
2023-01-18T08:11:36.832Z,1.27
2023-01-18T08:14:03.344Z,2.60
2023-01-18T08:16:30.016Z,2.90
2023-01-18T08:18:56.569Z,2.22
2023-01-18T08:21:23.057Z,2.72
2023-01-18T08:23:53.036Z,6.50
2023-01-18T08:26:19.848Z,5.65
2023-01-18T08:28:46.597Z,4.57
2023-01-18T08:31:19.614Z,2.67
2023-01-18T08:33:48.661Z,3.53
2023-01-18T08:36:21.735Z,1.80
2023-01-18T08:38:57.216Z,2.55
2023-01-18T08:41:28.411Z,3.50
2023-01-18T08:43:55.963Z,2.40
2023-01-18T08:46:23.142Z,3.20
2023-01-18T08:48:54.722Z,3.03
2023-01-18T08:51:23.026Z,2.40
2023-01-18T08:53:54.480Z,4.97
2023-01-18T08:56:21.211Z,3.65
2023-01-18T08:58:48.068Z,7.00
2023-01-18T09:01:14.680Z,2.65
2023-01-18T09:04:31.980Z,3.72
2023-01-18T09:06:58.470Z,6.07
2023-01-18T09:09:24.971Z,3.13
2023-01-18T09:11:52.296Z,4.47
2023-01-18T09:14:19.064Z,2.38
2023-01-18T09:16:45.513Z,5.50
2023-01-18T09:19:12.497Z,5.20
2023-01-18T09:21:40.106Z,2.60
2023-01-18T09:24:07.376Z,4.35
2023-01-18T09:26:34.111Z,9.13
2023-01-18T09:29:00.652Z,6.65
2023-01-18T09:31:30.641Z,3.58
2023-01-18T09:34:06.342Z,5.85
2023-01-18T09:36:44.345Z,3.97
2023-01-18T09:39:10.779Z,3.75
2023-01-18T09:41:42.757Z,5.45
2023-01-18T09:44:22.143Z,9.00
2023-01-18T09:46:55.094Z,2.25
2023-01-18T09:49:37.363Z,4.82
2023-01-18T09:52:48.317Z,2.20
2023-01-18T09:55:33.860Z,2.90
2023-01-18T09:58:28.371Z,3.25
2023-01-18T10:01:02.448Z,1.98
2023-01-18T10:06:08.816Z,1.33
2023-01-18T10:09:15.915Z,5.40
2023-01-18T10:12:00.803Z,3.72
2023-01-18T10:14:37.310Z,2.15
2023-01-18T10:17:11.774Z,4.10
2023-01-18T10:19:38.944Z,1.63
2023-01-18T10:22:19.615Z,1.65
2023-01-18T10:25:05.548Z,3.95
2023-01-18T10:27:44.394Z,1.98
2023-01-18T10:30:35.331Z,1.92
2023-01-18T10:33:13.342Z,4.75
2023-01-18T10:35:44.579Z,10.30
2023-01-18T10:38:17.719Z,7.30
2023-01-18T10:40:59.663Z,1.67
2023-01-18T10:43:28.668Z,3.70
2023-01-18T10:45:55.808Z,1.92
2023-01-18T10:48:24.940Z,5.55
2023-01-18T10:51:03.760Z,4.13
2023-01-18T10:53:38.273Z,2.15
2023-01-18T10:56:13.344Z,1.95
2023-01-18T10:58:52.136Z,1.58
2023-01-18T11:01:23.555Z,3.08
2023-01-18T11:03:54.428Z,1.58
2023-01-18T11:06:22.176Z,2.05
2023-01-18T11:08:49.898Z,3.75
2023-01-18T11:11:51.395Z,1.75
2023-01-18T11:14:39.554Z,2.88
2023-01-18T11:17:11.325Z,2.47
2023-01-18T11:19:39.184Z,4.95
2023-01-18T11:22:16.687Z,1.13
2023-01-18T11:24:43.272Z,3.85
2023-01-18T11:27:21.275Z,2.40
2023-01-18T11:29:47.909Z,5.45
2023-01-18T11:32:28.892Z,5.97
2023-01-18T11:35:00.020Z,5.20
2023-01-18T11:37:51.749Z,3.25
2023-01-18T11:40:27.689Z,3.45
2023-01-18T11:43:09.284Z,8.95
2023-01-18T11:45:45.840Z,7.78
2023-01-18T11:48:26.211Z,6.55
2023-01-18T11:50:59.528Z,4.38
2023-01-18T11:53:41.569Z,7.77
2023-01-18T11:56:20.842Z,10.90
2023-01-18T11:58:49.615Z,4.25
2023-01-18T12:01:35.217Z,6.28
2023-01-18T12:04:40.017Z,5.78
2023-01-18T12:07:21.051Z,10.10
2023-01-18T12:09:47.433Z,7.63
2023-01-18T12:12:19.993Z,5.55
2023-01-18T12:14:51.319Z,3.08
2023-01-18T12:18:04.363Z,6.13
2023-01-18T12:20:58.290Z,5.97
2023-01-18T12:23:54.536Z,9.80
2023-01-18T12:26:27.213Z,9.40
2023-01-18T12:29:20.220Z,7.93
2023-01-18T12:32:02.688Z,10.02
2023-01-18T12:34:45.747Z,8.93
2023-01-18T12:37:27.216Z,8.57
2023-01-18T12:40:00.653Z,7.30
2023-01-18T12:42:45.740Z,9.45
2023-01-18T12:45:38.938Z,6.18
2023-01-18T12:48:36.178Z,13.07
2023-01-18T12:51:16.113Z,7.00
2023-01-18T12:53:53.491Z,6.20
2023-01-18T12:56:38.353Z,9.30
2023-01-18T12:59:10.043Z,6.68
2023-01-18T13:01:42.810Z,12.13
2023-01-18T13:04:27.683Z,7.38
2023-01-18T13:07:00.417Z,7.15
2023-01-18T13:09:34.134Z,5.93
2023-01-18T13:12:02.636Z,5.55
2023-01-18T13:14:41.354Z,4.20
2023-01-18T13:17:20.917Z,6.43
2023-01-18T13:19:54.856Z,7.40
2023-01-18T13:22:53.483Z,6.85
2023-01-18T13:25:19.904Z,6.85
2023-01-18T13:28:16.834Z,8.40
2023-01-18T13:30:56.417Z,4.50
2023-01-18T13:33:27.025Z,4.75
2023-01-18T13:36:10.977Z,5.93
2023-01-18T13:38:47.806Z,3.70
2023-01-18T13:41:16.815Z,4.13
2023-01-18T13:43:43.213Z,5.53
2023-01-18T13:46:09.892Z,7.00
2023-01-18T13:48:42.797Z,3.53
2023-01-18T13:51:09.390Z,5.25
2023-01-18T13:53:49.899Z,3.60
2023-01-18T13:56:25.720Z,7.25
2023-01-18T13:58:58.620Z,5.28
2023-01-18T14:01:32.628Z,5.40
2023-01-18T14:06:36.226Z,4.85
2023-01-18T14:09:07.612Z,10.00
2023-01-18T14:11:40.507Z,6.85
2023-01-18T14:14:24.407Z,5.80
2023-01-18T14:16:54.010Z,6.43
2023-01-18T14:19:22.404Z,4.80
2023-01-18T14:22:21.501Z,6.07
2023-01-18T14:24:52.971Z,6.95
2023-01-18T14:27:25.446Z,7.25
2023-01-18T14:29:56.765Z,8.50
2023-01-18T14:32:36.823Z,4.63
2023-01-18T14:35:16.821Z,8.18
2023-01-18T14:37:44.494Z,10.05
2023-01-18T14:40:13.926Z,10.13
2023-01-18T14:43:05.771Z,11.10
2023-01-18T14:45:36.167Z,7.10
2023-01-18T14:48:12.881Z,4.82
2023-01-18T14:50:48.362Z,6.25
2023-01-18T14:53:21.335Z,6.93
2023-01-18T14:56:19.206Z,6.35
2023-01-18T14:59:00.589Z,11.55
2023-01-18T15:01:40.311Z,9.73
2023-01-18T15:04:19.693Z,8.38
2023-01-18T15:06:53.981Z,8.55
2023-01-18T15:09:22.415Z,7.28
2023-01-18T15:11:50.846Z,6.28
2023-01-18T15:14:21.783Z,7.38
2023-01-18T15:16:55.153Z,8.65
2023-01-18T15:19:31.680Z,13.18
2023-01-18T15:22:00.577Z,7.68
2023-01-18T15:24:29.210Z,15.70
2023-01-18T15:27:00.918Z,11.30
2023-01-18T15:29:31.765Z,11.63
2023-01-18T15:32:04.928Z,8.15
2023-01-18T15:34:35.402Z,8.00
2023-01-18T15:37:05.738Z,10.20
2023-01-18T15:39:33.640Z,10.43
2023-01-18T15:42:07.996Z,10.90
2023-01-18T15:44:48.148Z,8.25
2023-01-18T15:47:27.661Z,14.48
2023-01-18T15:50:00.093Z,10.55
2023-01-18T15:52:45.643Z,8.90
2023-01-18T15:55:26.032Z,12.07
2023-01-18T15:58:01.025Z,13.93
2023-01-18T16:00:33.506Z,13.38
2023-01-18T16:03:00.168Z,11.38
2023-01-18T16:05:26.950Z,13.05
2023-01-18T16:08:16.350Z,10.40
2023-01-18T16:10:55.257Z,14.15
2023-01-18T16:13:34.549Z,11.07
2023-01-18T16:16:06.534Z,9.23
2023-01-18T16:18:33.384Z,13.45
2023-01-18T16:21:12.724Z,13.93
2023-01-18T16:23:43.864Z,12.88
2023-01-18T16:26:12.033Z,9.88
2023-01-18T16:28:38.567Z,17.67
2023-01-18T16:31:05.153Z,7.18
2023-01-18T16:33:33.023Z,9.52
2023-01-18T16:35:59.597Z,13.90
2023-01-18T16:38:26.113Z,7.50
2023-01-18T16:40:52.778Z,8.77
2023-01-18T16:43:19.381Z,6.35
2023-01-18T16:45:49.015Z,8.60
2023-01-18T16:48:20.448Z,12.48
2023-01-18T16:50:47.761Z,12.80
2023-01-18T16:53:17.667Z,10.10
2023-01-18T16:55:45.147Z,14.35
2023-01-18T16:58:16.655Z,9.48
2023-01-18T17:01:05.825Z,8.02
2023-01-18T17:03:34.564Z,14.38
2023-01-18T17:06:01.644Z,17.02
2023-01-18T17:08:28.436Z,16.73
2023-01-18T17:10:55.848Z,13.75
2023-01-18T17:13:23.308Z,11.15
2023-01-18T17:15:51.986Z,13.13
2023-01-18T17:18:22.394Z,14.75
2023-01-18T17:20:53.146Z,15.00
2023-01-18T17:23:19.988Z,18.20
2023-01-18T17:25:47.025Z,16.20
2023-01-18T17:28:17.822Z,12.90
2023-01-18T17:30:48.804Z,18.27
2023-01-18T17:33:20.821Z,17.15
2023-01-18T17:35:52.277Z,13.52
2023-01-18T17:38:26.318Z,16.00
2023-01-18T17:40:54.842Z,10.63
2023-01-18T17:43:33.440Z,14.38
2023-01-18T17:46:05.723Z,14.10
2023-01-18T17:48:32.385Z,11.93
2023-01-18T17:50:59.331Z,13.30
2023-01-18T17:53:29.595Z,12.93
2023-01-18T17:55:56.227Z,9.15
2023-01-18T17:58:24.933Z,14.38
2023-01-18T18:00:51.653Z,11.80
2023-01-18T18:03:19.164Z,13.02
2023-01-18T18:05:46.285Z,14.10
2023-01-18T18:08:12.781Z,25.25
2023-01-18T18:10:43.371Z,20.38
2023-01-18T18:13:20.641Z,12.50
2023-01-18T18:15:50.516Z,15.40
2023-01-18T18:18:23.756Z,21.85
2023-01-18T18:21:01.175Z,21.50
2023-01-18T18:23:29.293Z,13.63
2023-01-18T18:25:56.633Z,16.73
2023-01-18T18:28:24.801Z,9.30
2023-01-18T18:30:51.677Z,16.00
2023-01-18T18:33:19.642Z,9.23
2023-01-18T18:35:51.710Z,12.23
2023-01-18T18:38:18.985Z,19.42
2023-01-18T18:40:45.928Z,15.30
2023-01-18T18:43:12.830Z,13.82
2023-01-18T18:45:39.731Z,20.45
2023-01-18T18:48:06.516Z,18.70
2023-01-18T18:50:33.020Z,11.52
2023-01-18T18:52:59.956Z,17.55
2023-01-18T18:55:26.985Z,17.65
2023-01-18T18:57:53.856Z,18.80
2023-01-18T19:00:21.014Z,16.48
2023-01-18T19:02:51.815Z,16.58
2023-01-18T19:05:18.993Z,21.13
2023-01-18T19:07:57.573Z,21.75
2023-01-18T19:10:27.428Z,16.30
2023-01-18T19:12:55.022Z,22.25
2023-01-18T19:15:22.300Z,15.48
2023-01-18T19:17:53.186Z,14.52
2023-01-18T19:20:20.629Z,18.08
2023-01-18T19:22:48.673Z,16.00
2023-01-18T19:25:16.828Z,14.05
2023-01-18T19:27:43.836Z,17.52
2023-01-18T19:30:18.989Z,15.45
2023-01-18T19:32:50.906Z,20.48
2023-01-18T19:35:18.858Z,23.83
2023-01-18T19:37:46.672Z,13.70
2023-01-18T19:40:15.422Z,19.20
2023-01-18T19:42:41.954Z,11.15
2023-01-18T19:45:11.460Z,10.82
2023-01-18T19:47:41.391Z,9.55
2023-01-18T19:50:09.627Z,13.13
2023-01-18T19:52:37.128Z,14.05
2023-01-18T19:55:04.110Z,8.48
2023-01-18T19:57:31.331Z,14.45
2023-01-18T19:59:57.885Z,13.10
2023-01-18T20:02:24.663Z,16.65
2023-01-18T20:04:52.568Z,20.70
2023-01-18T20:07:19.280Z,16.33
2023-01-18T20:09:47.862Z,12.73
2023-01-18T20:12:18.511Z,16.08
2023-01-18T20:14:47.302Z,19.02
2023-01-18T20:17:14.995Z,10.00
2023-01-18T20:19:42.621Z,13.20
2023-01-18T20:22:11.100Z,16.40
2023-01-18T20:24:37.770Z,17.60
2023-01-18T20:27:15.440Z,7.38
2023-01-18T20:29:43.210Z,15.73
2023-01-18T20:32:16.068Z,14.43
2023-01-18T20:34:44.861Z,20.33
2023-01-18T20:37:12.984Z,13.15
2023-01-18T20:39:39.899Z,19.48
2023-01-18T20:42:06.764Z,13.38
2023-01-18T20:44:33.475Z,17.52
2023-01-18T20:47:00.275Z,28.10
2023-01-18T20:49:37.326Z,12.98
2023-01-18T20:52:06.847Z,21.58
2023-01-18T20:54:35.736Z,17.83
2023-01-18T20:57:03.514Z,17.95
2023-01-18T20:59:30.023Z,19.90
2023-01-18T21:01:56.918Z,21.83
2023-01-18T21:04:25.136Z,22.45
2023-01-18T21:06:51.649Z,22.20
2023-01-18T21:09:18.908Z,24.73
2023-01-18T21:11:45.717Z,20.52
2023-01-18T21:14:12.751Z,29.35
2023-01-18T21:16:39.724Z,21.02
2023-01-18T21:19:06.369Z,23.98
2023-01-18T21:21:33.133Z,24.73
2023-01-18T21:24:00.076Z,20.65
2023-01-18T21:26:26.812Z,19.33
2023-01-18T21:28:54.634Z,19.42
2023-01-18T21:31:22.077Z,20.52
2023-01-18T21:33:49.320Z,21.40
2023-01-18T21:36:18.072Z,20.17
2023-01-18T21:38:44.696Z,26.15
2023-01-18T21:41:30.362Z,21.35
2023-01-18T21:44:15.645Z,30.52
2023-01-18T21:46:46.856Z,16.25
2023-01-18T21:49:52.130Z,13.65
2023-01-18T21:52:38.776Z,18.65
2023-01-18T21:55:05.610Z,23.95
2023-01-18T21:57:32.110Z,16.85
2023-01-18T21:59:58.703Z,20.95
2023-01-18T22:02:25.515Z,20.77
2023-01-18T22:04:59.197Z,15.77
2023-01-18T22:07:27.649Z,18.80
2023-01-18T22:10:03.888Z,27.23
2023-01-18T22:12:31.754Z,27.60
2023-01-18T22:15:02.309Z,21.63
2023-01-18T22:17:29.366Z,18.63
2023-01-18T22:19:56.008Z,26.63
2023-01-18T22:22:22.573Z,17.73
2023-01-18T22:24:49.354Z,18.98
2023-01-18T22:27:17.715Z,13.18
2023-01-18T22:29:44.731Z,19.83
2023-01-18T22:32:11.591Z,21.75
2023-01-18T22:34:38.142Z,16.10
2023-01-18T22:37:05.726Z,18.33
2023-01-18T22:39:33.217Z,17.33
2023-01-18T22:42:00.002Z,25.80
2023-01-18T22:44:37.921Z,18.77
2023-01-18T22:47:05.061Z,23.92
2023-01-18T22:49:31.800Z,14.15
2023-01-18T22:51:58.384Z,14.52
2023-01-18T22:54:24.981Z,23.77
2023-01-18T22:56:51.633Z,21.35
2023-01-18T22:59:18.221Z,16.20
